Messwerte Olympia

Temperatur

Temperatur
°C
1579467600 13.00 13.00 10
1579471200 14.00 14.00 9
1579474800 15.00 15.00 9
1579478400 16.00 16.00 9
1579482000 17.00 17.00 8
1579485600 18.00 18.00
1579489200 19.00 19.00 7
1579492800 20.00 20.00 6
1579496400 21.00 21.00 4
1579500000 22.00 22.00 5
1579503600 23.00 23.00 5
1579507200 0.00 0.00 5
1579510800 1.00 1.00
1579514400 2.00 2.00 4
1579518000 3.00 3.00 4
1579521600 4.00 4.00 5
1579525200 5.00 5.00 6
1579528800 6.00 6.00 7
1579532400 7.00 7.00 7
1579536000 8.00 8.00 7
1579539600 9.00 9.00 7
1579543200 10.00 10.00 8
1579546800 11.00 11.00 9
1579550400 12.00 12.00 9

Aktuellste Messwerte

Wettercharakter
Wetter: bedeckt
Temperatur
9 °C
Feuchtigkeit
70 %
Wind
0 km/h, -
Luftdruck
1012 hPa
Messzeit: 20. Januar 2020, 13.00Datenquelle: METAR

Weitere Messstationen in der Nähe

Messstation Temperatur Entfernung
Fort Lewis 9 °C 31 km
Shelton 8 °C 35 km
Tacoma 9 °C 38 km
Tacoma 9 °C 40 km
Bremerton 8 °C 60 km
Seattle 11 °C 70 km
Seattle Boeing 11 °C 70 km

Wind

Windrichtung Böen Mittelwind
° km/h km/h
1579467600 13.00 12.00 - 13.00 10° 5
1579471200 14.00 13.00 - 14.00 30° 10
1579474800 15.00 14.00 - 15.00 350° 10
1579478400 16.00 15.00 - 16.00 10° 15
1579482000 17.00 16.00 - 17.00 20° 5
1579485600 18.00 17.00 - 18.00
1579489200 19.00 18.00 - 19.00 0
1579492800 20.00 19.00 - 20.00 0
1579496400 21.00 20.00 - 21.00 90° 5
1579500000 22.00 21.00 - 22.00 0
1579503600 23.00 22.00 - 23.00 0
1579507200 0.00 23.00 - 0.00 0
1579510800 1.00 0.00 - 1.00
1579514400 2.00 1.00 - 2.00 160° 0
1579518000 3.00 2.00 - 3.00 180° 0
1579521600 4.00 3.00 - 4.00 0
1579525200 5.00 4.00 - 5.00 240° 5
1579528800 6.00 5.00 - 6.00 270° 10
1579532400 7.00 6.00 - 7.00 230° 15
1579536000 8.00 7.00 - 8.00 230° 10
1579539600 9.00 8.00 - 9.00 250° 5
1579543200 10.00 9.00 - 10.00 250° 5
1579546800 11.00 10.00 - 11.00 0
1579550400 12.00 11.00 - 12.00 0

Ihre Wetterstation

Fehlt Ihre Wetterstation auf unserem Portal?

Schreiben Sie an network@meteonews.ch

Klima

Wann ist es am wärmsten? Wann regnet es am wenigsten? Unsere Klimadaten geben Auskunft.